Guemes Island, Washington
Current Conditions -  °F | °C
As of 1:56 PM on Monday 26 Jan 2015 (Local Time) from KNUW Reporting Station
Broken Clouds Broken Clouds  
Wind Chill: 53°   Ceiling: 22000
Heat Index: 53°   Visibility: 10mi
Dew Point: 46°   Wind: 8mph
Humidity: 77%   Direction: 230°SW
Pressure: 29.89"   Gusts: NA
Location:  48.4652°N, 122.617°W
Report Text: KNUW 262156Z 23007KT 10SM FEW008 FEW020 SCT140 BKN220 12/08 A2989 RMK AO2 SLP124 T01170078 VISNO E $
Loading
Personal Weather Stations






























Interactive Weather Map New forecast layout! Learn more

10-Day Weather Forecast

Advertisements
Track Severe Weather on mobile